sensor_id;sensor_type;location;lat;lon;timestamp;pressure;altitude;pressure_sealevel;temperature;humidity
11343;BME280;5726;42.160;24.746;2023-03-20T00:01:21;100014.66;;;11.12;76.21
11343;BME280;5726;42.160;24.746;2023-03-20T00:03:49;100017.16;;;11.32;74.15
11343;BME280;5726;42.160;24.746;2023-03-20T00:06:25;100012.84;;;11.36;74.07
11343;BME280;5726;42.160;24.746;2023-03-20T00:08:53;100013.91;;;11.40;73.29
11343;BME280;5726;42.160;24.746;2023-03-20T00:14:12;99999.13;;;11.71;71.71
11343;BME280;5726;42.160;24.746;2023-03-20T00:16:42;99996.56;;;11.61;71.75
11343;BME280;5726;42.160;24.746;2023-03-20T00:19:22;99996.00;;;11.64;71.50
11343;BME280;5726;42.160;24.746;2023-03-20T00:21:49;99987.50;;;11.80;70.95
11343;BME280;5726;42.160;24.746;2023-03-20T00:24:15;99981.44;;;11.70;70.67
11343;BME280;5726;42.160;24.746;2023-03-20T00:26:42;99989.06;;;11.58;71.69
11343;BME280;5726;42.160;24.746;2023-03-20T00:29:15;99990.56;;;11.69;71.00
11343;BME280;5726;42.160;24.746;2023-03-20T00:31:43;99983.81;;;11.71;70.83
11343;BME280;5726;42.160;24.746;2023-03-20T00:34:14;99986.72;;;11.75;70.09
11343;BME280;5726;42.160;24.746;2023-03-20T00:36:40;99988.50;;;11.61;70.03
11343;BME280;5726;42.160;24.746;2023-03-20T00:39:06;99981.50;;;11.60;69.62
11343;BME280;5726;42.160;24.746;2023-03-20T00:46:42;99974.06;;;11.80;68.24
11343;BME280;5726;42.160;24.746;2023-03-20T00:49:10;99974.78;;;11.86;67.80
11343;BME280;5726;42.160;24.746;2023-03-20T00:51:36;99972.06;;;11.91;67.43
11343;BME280;5726;42.160;24.746;2023-03-20T00:54:09;99976.03;;;11.93;67.46
11343;BME280;5726;42.160;24.746;2023-03-20T00:56:41;99973.53;;;12.01;66.77
11343;BME280;5726;42.160;24.746;2023-03-20T00:59:14;99971.94;;;12.00;66.69
11343;BME280;5726;42.160;24.746;2023-03-20T01:01:40;99967.13;;;11.97;66.40
11343;BME280;5726;42.160;24.746;2023-03-20T01:04:14;99970.38;;;11.94;66.19
11343;BME280;5726;42.160;24.746;2023-03-20T01:06:40;99970.22;;;11.86;67.13
11343;BME280;5726;42.160;24.746;2023-03-20T01:09:06;99968.63;;;11.85;66.83
11343;BME280;5726;42.160;24.746;2023-03-20T01:11:32;99973.66;;;11.92;66.44
11343;BME280;5726;42.160;24.746;2023-03-20T01:13:58;99963.38;;;11.98;66.91
11343;BME280;5726;42.160;24.746;2023-03-20T01:16:24;99963.44;;;11.93;66.83
11343;BME280;5726;42.160;24.746;2023-03-20T01:18:51;99961.53;;;11.94;66.71
11343;BME280;5726;42.160;24.746;2023-03-20T01:21:18;99958.56;;;11.95;66.35
11343;BME280;5726;42.160;24.746;2023-03-20T01:23:44;99952.78;;;11.84;66.88
11343;BME280;5726;42.160;24.746;2023-03-20T01:26:37;99954.34;;;11.90;66.69
11343;BME280;5726;42.160;24.746;2023-03-20T01:29:11;99956.81;;;11.86;66.54
11343;BME280;5726;42.160;24.746;2023-03-20T01:31:37;99951.13;;;11.88;66.44
11343;BME280;5726;42.160;24.746;2023-03-20T01:34:03;99955.38;;;11.93;65.95
11343;BME280;5726;42.160;24.746;2023-03-20T01:36:28;99947.34;;;11.89;66.02
11343;BME280;5726;42.160;24.746;2023-03-20T01:38:56;99953.28;;;11.86;65.63
11343;BME280;5726;42.160;24.746;2023-03-20T01:41:24;99957.59;;;11.87;65.71
11343;BME280;5726;42.160;24.746;2023-03-20T01:43:51;99950.09;;;11.84;65.78
11343;BME280;5726;42.160;24.746;2023-03-20T01:46:28;99944.63;;;11.93;65.25
11343;BME280;5726;42.160;24.746;2023-03-20T01:51:30;99945.25;;;11.62;66.12
11343;BME280;5726;42.160;24.746;2023-03-20T01:54:01;99942.28;;;11.64;65.65
11343;BME280;5726;42.160;24.746;2023-03-20T01:56:32;99944.97;;;11.64;64.94
11343;BME280;5726;42.160;24.746;2023-03-20T01:59:04;99944.69;;;11.60;64.90
11343;BME280;5726;42.160;24.746;2023-03-20T02:01:32;99946.88;;;11.58;64.79
11343;BME280;5726;42.160;24.746;2023-03-20T02:04:01;99940.25;;;11.51;64.81
11343;BME280;5726;42.160;24.746;2023-03-20T02:06:27;99937.56;;;11.51;64.74
11343;BME280;5726;42.160;24.746;2023-03-20T02:08:53;99940.88;;;11.38;64.39
11343;BME280;5726;42.160;24.746;2023-03-20T02:11:21;99949.47;;;11.40;64.35
11343;BME280;5726;42.160;24.746;2023-03-20T02:13:50;99937.34;;;11.43;64.07
11343;BME280;5726;42.160;24.746;2023-03-20T02:16:17;99944.19;;;11.30;64.14
11343;BME280;5726;42.160;24.746;2023-03-20T02:18:46;99950.59;;;11.34;64.15
11343;BME280;5726;42.160;24.746;2023-03-20T02:21:44;99949.06;;;11.23;64.14
11343;BME280;5726;42.160;24.746;2023-03-20T02:24:40;99947.69;;;10.97;64.56
11343;BME280;5726;42.160;24.746;2023-03-20T02:27:33;99954.28;;;10.77;65.51
11343;BME280;5726;42.160;24.746;2023-03-20T02:30:21;99950.91;;;10.95;65.09
11343;BME280;5726;42.160;24.746;2023-03-20T02:39:09;99938.41;;;10.80;64.12
11343;BME280;5726;42.160;24.746;2023-03-20T02:44:44;99936.94;;;10.59;65.10
11343;BME280;5726;42.160;24.746;2023-03-20T02:47:15;99932.63;;;10.63;64.18
11343;BME280;5726;42.160;24.746;2023-03-20T02:49:50;99936.66;;;10.66;63.46
11343;BME280;5726;42.160;24.746;2023-03-20T02:52:24;99937.03;;;10.45;65.16
11343;BME280;5726;42.160;24.746;2023-03-20T02:56:00;99935.66;;;10.52;65.43
11343;BME280;5726;42.160;24.746;2023-03-20T03:00:25;99934.06;;;10.46;64.85
11343;BME280;5726;42.160;24.746;2023-03-20T03:05:49;99929.25;;;10.48;64.48
11343;BME280;5726;42.160;24.746;2023-03-20T03:08:18;99930.91;;;10.39;63.78
11343;BME280;5726;42.160;24.746;2023-03-20T03:10:56;99923.75;;;10.25;64.20
11343;BME280;5726;42.160;24.746;2023-03-20T03:13:29;99926.16;;;10.26;64.15
11343;BME280;5726;42.160;24.746;2023-03-20T03:16:00;99928.31;;;10.24;64.03
11343;BME280;5726;42.160;24.746;2023-03-20T03:18:29;99932.38;;;10.17;63.99
11343;BME280;5726;42.160;24.746;2023-03-20T03:20:58;99928.66;;;10.08;64.52
11343;BME280;5726;42.160;24.746;2023-03-20T03:23:29;99922.88;;;10.39;62.22
11343;BME280;5726;42.160;24.746;2023-03-20T03:25:56;99921.75;;;9.87;64.66
11343;BME280;5726;42.160;24.746;2023-03-20T03:28:37;99921.53;;;9.74;66.12
11343;BME280;5726;42.160;24.746;2023-03-20T03:31:10;99925.84;;;9.70;66.70
11343;BME280;5726;42.160;24.746;2023-03-20T03:33:38;99922.84;;;9.81;65.90
11343;BME280;5726;42.160;24.746;2023-03-20T03:36:41;99924.47;;;9.82;66.20
11343;BME280;5726;42.160;24.746;2023-03-20T03:41:52;99924.75;;;9.81;66.26
11343;BME280;5726;42.160;24.746;2023-03-20T03:47:07;99926.84;;;9.94;65.86
11343;BME280;5726;42.160;24.746;2023-03-20T03:49:38;99923.63;;;9.92;65.58
11343;BME280;5726;42.160;24.746;2023-03-20T03:52:09;99929.00;;;9.82;66.36
11343;BME280;5726;42.160;24.746;2023-03-20T03:54:45;99925.22;;;9.88;66.03
11343;BME280;5726;42.160;24.746;2023-03-20T03:57:14;99927.09;;;10.02;63.86
11343;BME280;5726;42.160;24.746;2023-03-20T03:59:47;99926.41;;;9.57;66.30
11343;BME280;5726;42.160;24.746;2023-03-20T04:02:15;99928.53;;;9.65;65.90
11343;BME280;5726;42.160;24.746;2023-03-20T04:04:45;99929.38;;;9.55;66.42
11343;BME280;5726;42.160;24.746;2023-03-20T04:07:13;99929.13;;;9.42;66.22
11343;BME280;5726;42.160;24.746;2023-03-20T04:09:39;99936.59;;;9.50;65.84
11343;BME280;5726;42.160;24.746;2023-03-20T04:12:05;99933.94;;;9.35;65.77
11343;BME280;5726;42.160;24.746;2023-03-20T04:14:42;99932.38;;;9.14;67.65
11343;BME280;5726;42.160;24.746;2023-03-20T04:17:08;99931.28;;;9.10;68.38
11343;BME280;5726;42.160;24.746;2023-03-20T04:19:33;99931.84;;;8.98;68.25
11343;BME280;5726;42.160;24.746;2023-03-20T04:21:59;99933.44;;;9.18;65.60
11343;BME280;5726;42.160;24.746;2023-03-20T04:24:24;99937.13;;;8.48;69.19
11343;BME280;5726;42.160;24.746;2023-03-20T04:26:50;99928.56;;;8.36;69.40
11343;BME280;5726;42.160;24.746;2023-03-20T04:29:16;99922.25;;;7.91;73.14
11343;BME280;5726;42.160;24.746;2023-03-20T04:31:42;99931.19;;;8.11;72.16
11343;BME280;5726;42.160;24.746;2023-03-20T04:34:07;99923.63;;;7.99;73.14
11343;BME280;5726;42.160;24.746;2023-03-20T04:36:32;99925.84;;;8.11;74.16
11343;BME280;5726;42.160;24.746;2023-03-20T04:38:58;99921.94;;;8.63;71.54
11343;BME280;5726;42.160;24.746;2023-03-20T04:41:23;99930.75;;;8.99;68.36
11343;BME280;5726;42.160;24.746;2023-03-20T04:43:49;99927.53;;;9.31;67.94
11343;BME280;5726;42.160;24.746;2023-03-20T04:46:14;99934.19;;;9.53;65.86
11343;BME280;5726;42.160;24.746;2023-03-20T04:48:40;99922.56;;;9.98;64.99
11343;BME280;5726;42.160;24.746;2023-03-20T04:51:06;99932.59;;;10.30;63.34
11343;BME280;5726;42.160;24.746;2023-03-20T04:53:31;99941.00;;;10.57;61.37
11343;BME280;5726;42.160;24.746;2023-03-20T04:55:56;99931.13;;;10.86;59.97
11343;BME280;5726;42.160;24.746;2023-03-20T04:58:23;99943.19;;;11.21;56.91
11343;BME280;5726;42.160;24.746;2023-03-20T05:00:49;99939.72;;;11.44;55.85
11343;BME280;5726;42.160;24.746;2023-03-20T05:03:14;99940.72;;;11.58;55.57
11343;BME280;5726;42.160;24.746;2023-03-20T05:05:40;99932.94;;;11.80;54.78
11343;BME280;5726;42.160;24.746;2023-03-20T05:08:05;99931.38;;;12.20;65.53
11343;BME280;5726;42.160;24.746;2023-03-20T05:10:31;99939.06;;;12.50;56.21
11343;BME280;5726;42.160;24.746;2023-03-20T05:12:56;99945.56;;;12.81;52.24
11343;BME280;5726;42.160;24.746;2023-03-20T05:15:22;99942.63;;;13.00;51.50
11343;BME280;5726;42.160;24.746;2023-03-20T05:17:47;99943.91;;;13.03;50.48
11343;BME280;5726;42.160;24.746;2023-03-20T05:20:14;99943.34;;;13.19;50.51
11343;BME280;5726;42.160;24.746;2023-03-20T05:22:39;99943.94;;;13.48;48.26
11343;BME280;5726;42.160;24.746;2023-03-20T05:25:05;99938.63;;;13.43;49.74
11343;BME280;5726;42.160;24.746;2023-03-20T05:27:31;99926.66;;;13.49;49.12
11343;BME280;5726;42.160;24.746;2023-03-20T05:29:56;99931.72;;;13.95;48.82
11343;BME280;5726;42.160;24.746;2023-03-20T05:32:22;99939.81;;;14.35;46.85
11343;BME280;5726;42.160;24.746;2023-03-20T05:34:47;99934.31;;;14.76;59.15
11343;BME280;5726;42.160;24.746;2023-03-20T05:37:13;99938.81;;;15.24;48.29
11343;BME280;5726;42.160;24.746;2023-03-20T05:39:38;99936.91;;;15.46;44.29
11343;BME280;5726;42.160;24.746;2023-03-20T05:42:03;99943.00;;;15.30;43.36
11343;BME280;5726;42.160;24.746;2023-03-20T05:44:29;99937.84;;;15.50;43.40
11343;BME280;5726;42.160;24.746;2023-03-20T05:46:55;99926.34;;;15.66;43.53
11343;BME280;5726;42.160;24.746;2023-03-20T05:49:20;99934.50;;;15.75;43.37
11343;BME280;5726;42.160;24.746;2023-03-20T05:51:46;99936.94;;;15.84;42.33
11343;BME280;5726;42.160;24.746;2023-03-20T05:54:11;99932.41;;;15.72;43.15
11343;BME280;5726;42.160;24.746;2023-03-20T05:56:37;99933.88;;;15.77;44.58
11343;BME280;5726;42.160;24.746;2023-03-20T05:59:02;99932.72;;;15.70;42.86
11343;BME280;5726;42.160;24.746;2023-03-20T06:01:28;99935.38;;;16.00;42.52
11343;BME280;5726;42.160;24.746;2023-03-20T06:03:53;99929.38;;;16.12;42.00
11343;BME280;5726;42.160;24.746;2023-03-20T06:06:18;99936.16;;;16.31;41.86
11343;BME280;5726;42.160;24.746;2023-03-20T06:08:44;99931.06;;;16.29;42.02
11343;BME280;5726;42.160;24.746;2023-03-20T06:11:10;99935.56;;;15.65;43.76
11343;BME280;5726;42.160;24.746;2023-03-20T06:13:36;99936.09;;;15.76;42.97
11343;BME280;5726;42.160;24.746;2023-03-20T06:16:01;99932.34;;;15.55;42.89
11343;BME280;5726;42.160;24.746;2023-03-20T06:18:27;99939.78;;;15.06;44.11
11343;BME280;5726;42.160;24.746;2023-03-20T06:20:53;99938.22;;;15.27;46.85
11343;BME280;5726;42.160;24.746;2023-03-20T06:23:20;99936.75;;;15.51;44.93
11343;BME280;5726;42.160;24.746;2023-03-20T06:25:45;99930.94;;;15.66;44.60
11343;BME280;5726;42.160;24.746;2023-03-20T06:28:11;99931.38;;;15.89;46.89
11343;BME280;5726;42.160;24.746;2023-03-20T06:30:36;99931.06;;;15.91;45.09
11343;BME280;5726;42.160;24.746;2023-03-20T06:33:02;99931.94;;;16.17;43.61
11343;BME280;5726;42.160;24.746;2023-03-20T06:35:30;99928.53;;;16.41;43.59
11343;BME280;5726;42.160;24.746;2023-03-20T06:37:56;99933.16;;;16.41;43.43
11343;BME280;5726;42.160;24.746;2023-03-20T06:40:22;99927.13;;;16.77;43.32
11343;BME280;5726;42.160;24.746;2023-03-20T06:42:48;99921.38;;;17.04;41.57
11343;BME280;5726;42.160;24.746;2023-03-20T06:45:13;99925.34;;;17.32;41.02
11343;BME280;5726;42.160;24.746;2023-03-20T06:47:40;99921.53;;;17.33;40.17
11343;BME280;5726;42.160;24.746;2023-03-20T06:50:06;99925.44;;;17.61;41.10
11343;BME280;5726;42.160;24.746;2023-03-20T06:52:31;99928.75;;;17.74;40.07
11343;BME280;5726;42.160;24.746;2023-03-20T06:54:57;99929.31;;;17.97;39.38
11343;BME280;5726;42.160;24.746;2023-03-20T06:57:23;99919.69;;;17.99;39.46
11343;BME280;5726;42.160;24.746;2023-03-20T06:59:48;99919.53;;;18.04;39.94
11343;BME280;5726;42.160;24.746;2023-03-20T07:02:14;99926.31;;;17.81;40.64
11343;BME280;5726;42.160;24.746;2023-03-20T07:04:41;99915.03;;;18.08;39.25
11343;BME280;5726;42.160;24.746;2023-03-20T07:07:06;99923.16;;;18.17;41.01
11343;BME280;5726;42.160;24.746;2023-03-20T07:09:32;99917.94;;;18.03;40.68
11343;BME280;5726;42.160;24.746;2023-03-20T07:11:58;99913.81;;;17.97;39.96
11343;BME280;5726;42.160;24.746;2023-03-20T07:14:24;99921.19;;;18.25;40.51
11343;BME280;5726;42.160;24.746;2023-03-20T07:16:49;99914.38;;;18.11;39.54
11343;BME280;5726;42.160;24.746;2023-03-20T07:19:16;99925.41;;;18.15;40.62
11343;BME280;5726;42.160;24.746;2023-03-20T07:21:42;99928.91;;;18.15;40.20
11343;BME280;5726;42.160;24.746;2023-03-20T07:24:08;99918.22;;;18.39;39.37
11343;BME280;5726;42.160;24.746;2023-03-20T07:26:33;99917.19;;;18.52;44.38
11343;BME280;5726;42.160;24.746;2023-03-20T07:28:58;99924.09;;;18.69;39.25
11343;BME280;5726;42.160;24.746;2023-03-20T07:31:26;99920.16;;;18.59;39.18
11343;BME280;5726;42.160;24.746;2023-03-20T07:33:53;99918.50;;;18.46;40.17
11343;BME280;5726;42.160;24.746;2023-03-20T07:36:18;99905.03;;;18.29;40.40
11343;BME280;5726;42.160;24.746;2023-03-20T07:38:44;99904.66;;;18.39;40.15
11343;BME280;5726;42.160;24.746;2023-03-20T07:41:10;99908.09;;;18.48;39.78
11343;BME280;5726;42.160;24.746;2023-03-20T07:43:35;99902.13;;;18.54;39.76
11343;BME280;5726;42.160;24.746;2023-03-20T07:46:02;99906.06;;;18.45;39.71
11343;BME280;5726;42.160;24.746;2023-03-20T07:48:28;99899.47;;;18.25;40.58
11343;BME280;5726;42.160;24.746;2023-03-20T07:50:53;99902.84;;;18.22;40.92
11343;BME280;5726;42.160;24.746;2023-03-20T07:53:19;99903.06;;;18.38;40.09
11343;BME280;5726;42.160;24.746;2023-03-20T07:55:45;99901.19;;;18.30;40.41
11343;BME280;5726;42.160;24.746;2023-03-20T07:58:10;99901.00;;;18.35;40.58
11343;BME280;5726;42.160;24.746;2023-03-20T08:00:36;99900.25;;;18.26;40.59
11343;BME280;5726;42.160;24.746;2023-03-20T08:03:02;99903.06;;;18.38;40.89
11343;BME280;5726;42.160;24.746;2023-03-20T08:05:27;99889.41;;;18.26;40.80
11343;BME280;5726;42.160;24.746;2023-03-20T08:07:53;99903.34;;;18.45;41.66
11343;BME280;5726;42.160;24.746;2023-03-20T08:10:19;99893.94;;;18.63;41.01
11343;BME280;5726;42.160;24.746;2023-03-20T08:12:44;99899.25;;;18.59;41.09
11343;BME280;5726;42.160;24.746;2023-03-20T08:15:10;99892.09;;;18.55;40.58
11343;BME280;5726;42.160;24.746;2023-03-20T08:17:36;99901.06;;;18.47;40.90
11343;BME280;5726;42.160;24.746;2023-03-20T08:20:02;99900.16;;;18.63;39.99
11343;BME280;5726;42.160;24.746;2023-03-20T08:22:27;99897.91;;;18.65;40.87
11343;BME280;5726;42.160;24.746;2023-03-20T08:24:53;99901.22;;;18.70;41.01
11343;BME280;5726;42.160;24.746;2023-03-20T08:27:18;99893.81;;;18.59;41.40
11343;BME280;5726;42.160;24.746;2023-03-20T08:29:44;99890.28;;;18.59;42.44
11343;BME280;5726;42.160;24.746;2023-03-20T08:32:09;99891.88;;;18.60;42.44
11343;BME280;5726;42.160;24.746;2023-03-20T08:34:35;99897.44;;;18.83;41.25
11343;BME280;5726;42.160;24.746;2023-03-20T08:37:02;99891.53;;;19.02;42.47
11343;BME280;5726;42.160;24.746;2023-03-20T08:39:28;99891.81;;;19.09;41.33
11343;BME280;5726;42.160;24.746;2023-03-20T08:41:54;99886.97;;;19.14;40.50
11343;BME280;5726;42.160;24.746;2023-03-20T08:44:19;99882.25;;;19.35;40.34
11343;BME280;5726;42.160;24.746;2023-03-20T08:46:44;99886.56;;;19.36;40.47
11343;BME280;5726;42.160;24.746;2023-03-20T08:49:11;99872.59;;;18.93;40.04
11343;BME280;5726;42.160;24.746;2023-03-20T08:51:37;99880.34;;;19.03;41.40
11343;BME280;5726;42.160;24.746;2023-03-20T08:54:02;99876.50;;;18.84;40.89
11343;BME280;5726;42.160;24.746;2023-03-20T08:56:28;99869.53;;;18.95;41.70
11343;BME280;5726;42.160;24.746;2023-03-20T08:58:53;99874.97;;;18.74;41.55
11343;BME280;5726;42.160;24.746;2023-03-20T09:01:20;99871.81;;;18.72;41.67
11343;BME280;5726;42.160;24.746;2023-03-20T09:03:45;99863.91;;;18.79;41.65
11343;BME280;5726;42.160;24.746;2023-03-20T09:06:11;99861.13;;;19.08;41.16
11343;BME280;5726;42.160;24.746;2023-03-20T09:08:37;99859.28;;;19.12;41.13
11343;BME280;5726;42.160;24.746;2023-03-20T09:11:03;99855.47;;;19.13;41.11
11343;BME280;5726;42.160;24.746;2023-03-20T09:13:29;99856.28;;;18.93;40.49
11343;BME280;5726;42.160;24.746;2023-03-20T09:15:55;99856.41;;;18.97;40.46
11343;BME280;5726;42.160;24.746;2023-03-20T09:18:21;99857.84;;;18.94;40.57
11343;BME280;5726;42.160;24.746;2023-03-20T09:20:47;99854.00;;;18.95;40.71
11343;BME280;5726;42.160;24.746;2023-03-20T09:23:13;99856.69;;;19.04;41.32
11343;BME280;5726;42.160;24.746;2023-03-20T09:25:39;99850.19;;;18.96;40.79
11343;BME280;5726;42.160;24.746;2023-03-20T09:28:04;99841.88;;;18.93;39.66
11343;BME280;5726;42.160;24.746;2023-03-20T09:30:30;99842.16;;;18.79;40.29
11343;BME280;5726;42.160;24.746;2023-03-20T09:32:56;99834.19;;;18.95;39.61
11343;BME280;5726;42.160;24.746;2023-03-20T09:35:21;99846.84;;;19.11;39.61
11343;BME280;5726;42.160;24.746;2023-03-20T09:37:47;99841.00;;;19.01;40.00
11343;BME280;5726;42.160;24.746;2023-03-20T09:40:23;99841.09;;;19.13;39.81
11343;BME280;5726;42.160;24.746;2023-03-20T09:48:48;99825.72;;;18.96;40.56
11343;BME280;5726;42.160;24.746;2023-03-20T09:51:59;99811.97;;;19.13;40.43
11343;BME280;5726;42.160;24.746;2023-03-20T09:54:40;99820.78;;;19.10;39.33
11343;BME280;5726;42.160;24.746;2023-03-20T09:57:18;99813.00;;;19.20;39.81
11343;BME280;5726;42.160;24.746;2023-03-20T09:59:46;99809.31;;;19.05;39.43
11343;BME280;5726;42.160;24.746;2023-03-20T10:02:17;99810.16;;;19.05;40.03
11343;BME280;5726;42.160;24.746;2023-03-20T10:04:52;99809.00;;;19.06;39.77
11343;BME280;5726;42.160;24.746;2023-03-20T10:07:19;99798.16;;;19.18;39.21
11343;BME280;5726;42.160;24.746;2023-03-20T10:09:44;99793.03;;;19.05;39.68
11343;BME280;5726;42.160;24.746;2023-03-20T10:15:06;99776.97;;;19.12;39.64
11343;BME280;5726;42.160;24.746;2023-03-20T10:20:38;99782.19;;;18.84;40.28
11343;BME280;5726;42.160;24.746;2023-03-20T10:25:51;99762.81;;;19.18;39.07
11343;BME280;5726;42.160;24.746;2023-03-20T10:28:33;99767.78;;;19.04;39.69
11343;BME280;5726;42.160;24.746;2023-03-20T10:41:23;99741.63;;;19.23;39.90
11343;BME280;5726;42.160;24.746;2023-03-20T10:43:51;99737.91;;;19.28;39.98
11343;BME280;5726;42.160;24.746;2023-03-20T10:46:26;99728.94;;;19.16;41.05
11343;BME280;5726;42.160;24.746;2023-03-20T10:49:03;99724.91;;;18.89;41.22
11343;BME280;5726;42.160;24.746;2023-03-20T10:51:39;99711.31;;;18.77;41.70
11343;BME280;5726;42.160;24.746;2023-03-20T10:54:14;99713.81;;;18.94;40.97
11343;BME280;5726;42.160;24.746;2023-03-20T10:56:46;99708.84;;;18.96;41.42
11343;BME280;5726;42.160;24.746;2023-03-20T10:59:49;99702.66;;;19.19;40.46
11343;BME280;5726;42.160;24.746;2023-03-20T11:02:17;99702.66;;;19.19;39.74
11343;BME280;5726;42.160;24.746;2023-03-20T11:04:43;99699.94;;;19.31;38.94
11343;BME280;5726;42.160;24.746;2023-03-20T11:07:31;99695.28;;;19.56;38.75
11343;BME280;5726;42.160;24.746;2023-03-20T11:12:34;99681.84;;;19.74;38.88
11343;BME280;5726;42.160;24.746;2023-03-20T11:15:04;99679.03;;;19.71;39.56
11343;BME280;5726;42.160;24.746;2023-03-20T11:17:38;99675.03;;;19.80;38.38
11343;BME280;5726;42.160;24.746;2023-03-20T11:20:04;99668.38;;;19.90;38.67
11343;BME280;5726;42.160;24.746;2023-03-20T11:22:30;99665.78;;;20.09;38.74
11343;BME280;5726;42.160;24.746;2023-03-20T11:24:57;99664.97;;;19.81;38.46
11343;BME280;5726;42.160;24.746;2023-03-20T11:27:30;99666.00;;;19.88;38.58
11343;BME280;5726;42.160;24.746;2023-03-20T11:29:59;99651.53;;;19.49;38.94
11343;BME280;5726;42.160;24.746;2023-03-20T11:34:56;99641.75;;;19.60;38.50
11343;BME280;5726;42.160;24.746;2023-03-20T11:37:34;99630.97;;;19.87;37.94
11343;BME280;5726;42.160;24.746;2023-03-20T11:40:13;99628.81;;;19.68;38.60
11343;BME280;5726;42.160;24.746;2023-03-20T11:42:39;99626.59;;;19.98;37.90
11343;BME280;5726;42.160;24.746;2023-03-20T11:45:15;99614.31;;;20.04;37.41
11343;BME280;5726;42.160;24.746;2023-03-20T11:47:41;99612.97;;;19.98;37.60
11343;BME280;5726;42.160;24.746;2023-03-20T11:50:34;99612.44;;;19.92;37.00
11343;BME280;5726;42.160;24.746;2023-03-20T11:53:01;99607.53;;;19.98;37.13
11343;BME280;5726;42.160;24.746;2023-03-20T11:55:30;99599.94;;;20.18;36.44
11343;BME280;5726;42.160;24.746;2023-03-20T11:58:01;99601.09;;;19.90;36.02
11343;BME280;5726;42.160;24.746;2023-03-20T12:00:35;99591.69;;;20.15;36.09
11343;BME280;5726;42.160;24.746;2023-03-20T12:03:01;99584.31;;;20.31;36.12
11343;BME280;5726;42.160;24.746;2023-03-20T12:05:35;99578.38;;;20.71;35.59
11343;BME280;5726;42.160;24.746;2023-03-20T12:08:15;99586.72;;;20.78;37.18
11343;BME280;5726;42.160;24.746;2023-03-20T12:10:50;99581.81;;;20.68;36.52
11343;BME280;5726;42.160;24.746;2023-03-20T12:13:38;99578.63;;;20.66;36.10
11343;BME280;5726;42.160;24.746;2023-03-20T12:16:11;99578.63;;;20.66;35.84
11343;BME280;5726;42.160;24.746;2023-03-20T12:18:44;99577.06;;;20.81;36.22
11343;BME280;5726;42.160;24.746;2023-03-20T12:28:59;99566.25;;;20.84;35.92
11343;BME280;5726;42.160;24.746;2023-03-20T12:31:52;99574.91;;;21.05;35.96
11343;BME280;5726;42.160;24.746;2023-03-20T12:34:31;99570.88;;;20.99;36.21
11343;BME280;5726;42.160;24.746;2023-03-20T12:36:59;99559.09;;;20.95;36.02
11343;BME280;5726;42.160;24.746;2023-03-20T12:39:55;99557.84;;;21.08;35.67
11343;BME280;5726;42.160;24.746;2023-03-20T12:45:37;99544.78;;;21.17;36.28
11343;BME280;5726;42.160;24.746;2023-03-20T12:50:36;99544.16;;;21.23;35.36
11343;BME280;5726;42.160;24.746;2023-03-20T12:53:29;99544.19;;;21.08;34.64
11343;BME280;5726;42.160;24.746;2023-03-20T13:01:05;99533.09;;;21.51;33.87
11343;BME280;5726;42.160;24.746;2023-03-20T13:06:39;99531.78;;;21.63;33.74
11343;BME280;5726;42.160;24.746;2023-03-20T13:18:00;99504.44;;;21.60;35.83
11343;BME280;5726;42.160;24.746;2023-03-20T13:20:33;99500.88;;;21.78;34.92
11343;BME280;5726;42.160;24.746;2023-03-20T13:25:33;99511.09;;;21.62;34.28
11343;BME280;5726;42.160;24.746;2023-03-20T13:39:17;99489.38;;;21.88;33.61
11343;BME280;5726;42.160;24.746;2023-03-20T13:41:45;99479.34;;;21.73;34.87
11343;BME280;5726;42.160;24.746;2023-03-20T13:44:13;99488.66;;;21.91;34.24
11343;BME280;5726;42.160;24.746;2023-03-20T13:46:45;99476.94;;;21.91;34.12
11343;BME280;5726;42.160;24.746;2023-03-20T13:49:16;99476.31;;;22.01;33.79
11343;BME280;5726;42.160;24.746;2023-03-20T13:52:15;99474.13;;;21.87;34.54
11343;BME280;5726;42.160;24.746;2023-03-20T14:05:40;99460.97;;;21.70;34.83
11343;BME280;5726;42.160;24.746;2023-03-20T14:13:51;99446.16;;;21.71;35.20
11343;BME280;5726;42.160;24.746;2023-03-20T14:16:18;99444.53;;;21.67;35.78
11343;BME280;5726;42.160;24.746;2023-03-20T14:18:49;99439.84;;;21.67;34.93
11343;BME280;5726;42.160;24.746;2023-03-20T14:21:27;99435.25;;;21.71;34.44
11343;BME280;5726;42.160;24.746;2023-03-20T14:24:01;99434.34;;;21.64;34.37
11343;BME280;5726;42.160;24.746;2023-03-20T14:26:30;99428.44;;;21.43;34.98
11343;BME280;5726;42.160;24.746;2023-03-20T14:29:01;99431.31;;;21.50;34.91
11343;BME280;5726;42.160;24.746;2023-03-20T14:31:32;99427.66;;;21.61;34.49
11343;BME280;5726;42.160;24.746;2023-03-20T14:39:52;99417.88;;;21.60;34.35
11343;BME280;5726;42.160;24.746;2023-03-20T14:42:25;99418.69;;;21.61;34.46
11343;BME280;5726;42.160;24.746;2023-03-20T14:50:12;99402.22;;;21.58;33.87
11343;BME280;5726;42.160;24.746;2023-03-20T14:52:58;99398.22;;;21.74;33.56
11343;BME280;5726;42.160;24.746;2023-03-20T14:57:55;99399.63;;;21.64;33.92
11343;BME280;5726;42.160;24.746;2023-03-20T15:00:23;99393.75;;;21.62;32.72
11343;BME280;5726;42.160;24.746;2023-03-20T15:02:51;99394.50;;;21.60;32.91
11343;BME280;5726;42.160;24.746;2023-03-20T15:05:24;99396.13;;;21.64;32.83
11343;BME280;5726;42.160;24.746;2023-03-20T15:07:51;99395.94;;;21.54;33.10
11343;BME280;5726;42.160;24.746;2023-03-20T15:10:17;99395.25;;;21.41;33.12
11343;BME280;5726;42.160;24.746;2023-03-20T15:12:42;99398.66;;;21.35;33.34
11343;BME280;5726;42.160;24.746;2023-03-20T15:15:30;99398.34;;;21.40;33.04
11343;BME280;5726;42.160;24.746;2023-03-20T15:18:09;99408.69;;;21.31;32.98
11343;BME280;5726;42.160;24.746;2023-03-20T15:20:35;99404.16;;;21.38;32.64
11343;BME280;5726;42.160;24.746;2023-03-20T15:23:01;99399.53;;;21.20;32.72
11343;BME280;5726;42.160;24.746;2023-03-20T15:25:32;99400.56;;;21.12;33.50
11343;BME280;5726;42.160;24.746;2023-03-20T15:28:06;99406.47;;;21.36;33.94